Hlavní strana
METAR-TAF:

METAR-TAF

Letiště :

Billund, Dánsko

zeměpisná šířka: 55-44N, zeměpisná délka: 009-10E, výška: 75 m

Aktuální stav počasí

Zpráva byla vytvořena před 19 minutami, v 11:20 UTC
Severozápadní vítr 14 kt
Teplota 5°C
Vlhkost vzduchu 60%
Tlak 1018 hPa
Viditelnost 10 km a více

METAR: EKBI 071120Z AUTO 31014KT 9999 SCT028/// 05/M02 Q1018

Čas: 12:39 (11:39 UTC)

Předpověď počasí

Zpráva byla vytvořena před 6 hodinami a 23 minutami, v 05:16 UTC
Předpověď platná od 07 v 06 UTC do 08 v 06 UTC
Západní vítr 15 kt
Viditelnost 10 km a více
Oblačno až skoro zataženo ve výšce 2000 ft
Změna
od 07 v 06 UTC do 07 v 08 UTC
Oblačno až skoro zataženo ve výšce 800 ft
déšť
Změna
od 07 v 08 UTC do 07 v 11 UTC
Severoseverozápadní vítr 8 kt
Polojasno ve výšce 2000 ft

TAF: EKBI 070516Z 0706/0806 27015KT 9999 BKN020 BECMG 0706/0708 RA BKN008 BECMG 0708/0711 34008KT NSW SCT020

Stav a předpovědi počasí z více než 4 000 letišť (zprávy METAR a TAF).

Červené a žluté tečky na mapě představují dostupné meteorologické stanice.

Když kurzor umístíte na tečku, zobrazí se název stanice.

Pak kliknutím zobrazíte stav a předpověď počasí.

Chcete-li změnit mapu, kliknutím na zelené tlačítko se znaménkem +mapu přiblížíte, kliknutím na zelené tlačítko se znaménkem – mapu oddálíte a kliknutím na zelené šipky přejdete na sousední mapy.


METAR-TAF: